createdAt,value
2019-02-09T00:04:07.061Z,5.04
2019-02-09T00:09:11.244Z,5.07
2019-02-09T00:14:15.334Z,5.12
2019-02-09T00:19:19.383Z,5.03
2019-02-09T00:24:23.500Z,4.93
2019-02-09T00:29:27.894Z,4.90
2019-02-09T00:34:32.239Z,4.95
2019-02-09T00:39:37.865Z,5.08
2019-02-09T00:44:42.023Z,4.91
2019-02-09T00:49:46.117Z,4.71
2019-02-09T00:54:50.200Z,4.84
2019-02-09T00:59:54.533Z,4.91
2019-02-09T01:04:59.478Z,4.87
2019-02-09T01:10:05.680Z,4.82
2019-02-09T01:15:12.525Z,4.76
2019-02-09T01:20:19.006Z,4.60
2019-02-09T01:25:23.067Z,4.68
2019-02-09T01:30:27.151Z,4.67
2019-02-09T01:35:31.215Z,4.44
2019-02-09T01:40:35.332Z,4.40
2019-02-09T01:45:39.457Z,4.32
2019-02-09T01:50:43.579Z,4.16
2019-02-09T01:55:47.655Z,4.33
2019-02-09T02:00:51.804Z,4.45
2019-02-09T02:05:55.874Z,4.46
2019-02-09T02:10:59.904Z,4.41
2019-02-09T02:16:04.134Z,4.44
2019-02-09T02:21:08.257Z,4.50
2019-02-09T02:26:12.317Z,4.44
2019-02-09T02:31:16.404Z,4.63
2019-02-09T02:36:20.701Z,4.68
2019-02-09T02:41:24.831Z,4.79
2019-02-09T02:46:29.146Z,4.88
2019-02-09T02:51:33.314Z,4.98
2019-02-09T02:56:37.362Z,4.96
2019-02-09T03:01:41.401Z,5.06
2019-02-09T03:06:45.447Z,5.08
2019-02-09T03:11:49.519Z,5.19
2019-02-09T03:16:53.591Z,5.18
2019-02-09T03:21:59.283Z,5.14
2019-02-09T03:27:03.372Z,5.11
2019-02-09T03:32:10.750Z,5.40
2019-02-09T03:37:13.198Z,5.28
2019-02-09T03:42:17.282Z,5.31
2019-02-09T03:47:21.350Z,5.39
2019-02-09T03:52:25.467Z,5.53
2019-02-09T03:57:29.722Z,5.61
2019-02-09T04:02:33.758Z,5.65
2019-02-09T04:07:37.938Z,5.78
2019-02-09T04:12:42.245Z,5.88
2019-02-09T04:17:46.340Z,5.90
2019-02-09T04:22:50.462Z,5.93
2019-02-09T04:27:54.582Z,5.94
2019-02-09T04:32:58.756Z,5.83
2019-02-09T04:38:02.731Z,5.95
2019-02-09T04:43:06.791Z,6.05
2019-02-09T04:48:10.846Z,6.05
2019-02-09T04:53:16.297Z,5.87
2019-02-09T04:58:20.361Z,5.88
2019-02-09T05:03:24.431Z,5.89
2019-02-09T05:08:28.521Z,5.94
2019-02-09T05:13:32.562Z,5.83
2019-02-09T05:18:36.650Z,5.86
2019-02-09T05:23:40.719Z,5.90
2019-02-09T05:28:44.797Z,5.86
2019-02-09T05:33:48.960Z,5.92
2019-02-09T05:38:53.065Z,5.99
2019-02-09T05:43:57.093Z,5.92
2019-02-09T05:49:01.194Z,6.01
2019-02-09T05:54:05.305Z,6.00
2019-02-09T05:59:09.347Z,5.75
2019-02-09T06:04:13.419Z,5.68
2019-02-09T06:09:17.444Z,5.57
2019-02-09T06:14:21.509Z,5.47
2019-02-09T06:19:25.546Z,5.41
2019-02-09T06:24:29.580Z,5.43
2019-02-09T06:29:33.672Z,5.45
2019-02-09T06:34:37.707Z,5.46
2019-02-09T06:40:01.978Z,5.36
2019-02-09T06:45:07.437Z,5.60
2019-02-09T06:50:13.617Z,5.62
2019-02-09T06:55:19.663Z,5.68
2019-02-09T07:00:23.731Z,5.60
2019-02-09T07:05:27.805Z,5.68
2019-02-09T07:10:31.889Z,5.86
2019-02-09T07:15:36.157Z,5.77
2019-02-09T07:20:40.190Z,5.87
2019-02-09T07:25:44.612Z,5.88
2019-02-09T07:30:48.744Z,5.84
2019-02-09T07:35:53.107Z,5.72
2019-02-09T07:40:57.136Z,5.78
2019-02-09T07:46:01.495Z,5.78
2019-02-09T07:51:05.638Z,5.78
2019-02-09T07:56:09.717Z,5.88
2019-02-09T08:01:13.708Z,5.99
2019-02-09T08:06:18.103Z,5.93
2019-02-09T08:11:22.132Z,5.79
2019-02-09T08:16:26.131Z,5.80
2019-02-09T08:21:30.119Z,5.92
2019-02-09T08:26:34.490Z,6.35
2019-02-09T08:31:38.863Z,6.68
2019-02-09T08:36:42.857Z,7.06
2019-02-09T08:41:46.927Z,6.99
2019-02-09T08:46:50.994Z,6.84
2019-02-09T08:51:55.056Z,7.02
2019-02-09T08:56:59.028Z,7.41
2019-02-09T09:02:03.176Z,7.57
2019-02-09T09:07:07.198Z,7.52
2019-02-09T09:12:11.311Z,7.73
2019-02-09T09:17:15.398Z,8.02
2019-02-09T09:22:19.652Z,8.38
2019-02-09T09:27:24.049Z,8.25
2019-02-09T09:32:28.811Z,7.96
2019-02-09T09:37:33.146Z,8.01
2019-02-09T09:42:37.299Z,8.34
2019-02-09T09:47:41.286Z,8.83
2019-02-09T09:52:45.328Z,8.87
2019-02-09T09:57:49.379Z,9.14
2019-02-09T10:02:54.720Z,9.14
2019-02-09T10:07:58.854Z,9.01
2019-02-09T10:13:03.059Z,9.58
2019-02-09T10:18:07.056Z,9.92
2019-02-09T10:23:11.288Z,9.92
2019-02-09T10:28:15.329Z,10.28
2019-02-09T10:33:19.350Z,10.16
2019-02-09T10:38:23.446Z,10.38
2019-02-09T10:43:27.516Z,11.10
2019-02-09T10:48:31.546Z,11.40
2019-02-09T10:53:35.704Z,13.01
2019-02-09T10:58:39.855Z,13.87
2019-02-09T11:03:44.149Z,14.05
2019-02-09T11:08:48.180Z,13.21
2019-02-09T11:13:52.274Z,13.20
2019-02-09T11:18:56.305Z,12.40
2019-02-09T11:24:00.346Z,12.66
2019-02-09T11:29:04.486Z,12.67
2019-02-09T11:34:08.549Z,12.26
2019-02-09T11:39:13.728Z,11.96
2019-02-09T11:44:17.754Z,12.33
2019-02-09T11:49:21.782Z,12.62
2019-02-09T11:54:27.164Z,12.15
2019-02-09T11:59:31.259Z,11.80
2019-02-09T12:04:35.229Z,11.24
2019-02-09T12:09:39.330Z,11.37
2019-02-09T12:14:43.312Z,11.42
2019-02-09T12:19:47.403Z,11.95
2019-02-09T12:24:52.033Z,11.67
2019-02-09T12:29:56.648Z,10.83
2019-02-09T12:35:00.739Z,10.73
2019-02-09T12:40:06.852Z,10.88
2019-02-09T12:45:12.243Z,11.58
2019-02-09T12:50:17.085Z,11.90
2019-02-09T12:55:21.558Z,12.23
2019-02-09T13:00:27.617Z,12.13
2019-02-09T13:05:31.837Z,11.97
2019-02-09T13:10:35.859Z,12.41
2019-02-09T13:15:40.017Z,12.94
2019-02-09T13:20:44.412Z,12.34
2019-02-09T13:25:48.596Z,11.60
2019-02-09T13:30:52.653Z,11.09
2019-02-09T13:35:56.742Z,10.87
2019-02-09T13:41:00.841Z,10.77
2019-02-09T13:46:04.965Z,11.61
2019-02-09T13:51:09.220Z,12.12
2019-02-09T13:56:14.459Z,12.35
2019-02-09T14:01:18.555Z,11.54
2019-02-09T14:06:22.657Z,11.30
2019-02-09T14:11:26.727Z,11.47
2019-02-09T14:16:38.452Z,12.14
2019-02-09T14:21:36.640Z,11.51
2019-02-09T14:26:40.721Z,11.75
2019-02-09T14:31:44.888Z,11.21
2019-02-09T14:36:49.041Z,11.19
2019-02-09T14:41:53.229Z,11.09
2019-02-09T14:46:57.350Z,11.58
2019-02-09T14:52:02.617Z,11.86
2019-02-09T14:57:06.799Z,11.53
2019-02-09T15:02:12.012Z,11.07
2019-02-09T15:07:31.578Z,10.53
2019-02-09T15:12:35.716Z,10.22
2019-02-09T15:17:39.823Z,10.06
2019-02-09T15:22:43.958Z,10.22
2019-02-09T15:27:48.100Z,10.17
2019-02-09T15:32:52.169Z,10.22
2019-02-09T15:37:56.349Z,10.10
2019-02-09T15:43:00.556Z,10.03
2019-02-09T15:48:05.045Z,9.97
2019-02-09T15:53:09.168Z,9.96
2019-02-09T15:58:13.195Z,9.84
2019-02-09T16:03:17.373Z,9.71
2019-02-09T16:08:21.475Z,9.65
2019-02-09T16:13:25.486Z,9.59
2019-02-09T16:18:29.588Z,9.48
2019-02-09T16:23:33.661Z,9.36
2019-02-09T16:28:37.786Z,9.51
2019-02-09T16:33:41.849Z,8.90
2019-02-09T16:38:46.008Z,8.83
2019-02-09T16:43:50.096Z,8.58
2019-02-09T16:48:54.158Z,8.58
2019-02-09T16:53:58.692Z,8.39
2019-02-09T16:59:03.143Z,8.36
2019-02-09T17:04:07.286Z,8.55
2019-02-09T17:09:11.302Z,8.71
2019-02-09T17:14:15.470Z,8.95
2019-02-09T17:19:19.598Z,8.84
2019-02-09T17:24:23.634Z,9.13
2019-02-09T17:29:28.641Z,9.05
2019-02-09T17:34:32.718Z,8.81
2019-02-09T17:39:36.821Z,8.90
2019-02-09T17:44:40.965Z,9.18
2019-02-09T17:49:46.559Z,8.68
2019-02-09T17:54:50.832Z,7.76
2019-02-09T17:59:54.849Z,7.31
2019-02-09T18:04:59.156Z,7.03
2019-02-09T18:10:04.045Z,6.74
2019-02-09T18:15:09.060Z,6.50
2019-02-09T18:20:14.832Z,6.40
2019-02-09T18:25:18.951Z,6.25
2019-02-09T18:30:23.159Z,6.25
2019-02-09T18:35:27.299Z,6.37
2019-02-09T18:40:31.526Z,6.46
2019-02-09T18:45:35.792Z,6.45
2019-02-09T18:50:39.937Z,6.62
2019-02-09T18:55:44.115Z,6.44
2019-02-09T19:00:49.556Z,6.34
2019-02-09T19:05:53.720Z,6.15
2019-02-09T19:10:57.960Z,6.09
2019-02-09T19:16:02.040Z,6.22
2019-02-09T19:21:10.745Z,6.50
2019-02-09T19:26:14.864Z,6.75
2019-02-09T19:31:19.418Z,6.65
2019-02-09T19:36:23.628Z,6.31
2019-02-09T19:41:27.830Z,6.35
2019-02-09T19:46:34.836Z,6.44
2019-02-09T19:51:38.978Z,6.54
2019-02-09T19:56:43.476Z,6.73
2019-02-09T20:01:47.822Z,6.78
2019-02-09T20:06:51.913Z,6.93
2019-02-09T20:11:55.990Z,6.88
2019-02-09T20:17:00.097Z,6.89
2019-02-09T20:22:04.479Z,6.65
2019-02-09T20:27:08.549Z,6.68
2019-02-09T20:32:12.598Z,6.77
2019-02-09T20:37:16.694Z,6.58
2019-02-09T20:42:20.762Z,6.49
2019-02-09T20:47:24.868Z,6.47
2019-02-09T20:52:28.925Z,6.31
2019-02-09T20:57:33.288Z,6.27
2019-02-09T21:02:37.444Z,6.18
2019-02-09T21:07:41.615Z,5.86
2019-02-09T21:12:45.683Z,5.80
2019-02-09T21:17:49.890Z,5.64
2019-02-09T21:22:54.341Z,5.59
2019-02-09T21:27:58.441Z,5.66
2019-02-09T21:33:02.460Z,5.65
2019-02-09T21:38:06.585Z,5.40
2019-02-09T21:43:11.702Z,5.39
2019-02-09T21:48:16.054Z,5.30
2019-02-09T21:53:20.108Z,5.56
2019-02-09T21:58:24.194Z,5.56
2019-02-09T22:03:28.607Z,6.03
2019-02-09T22:08:32.870Z,5.92
2019-02-09T22:13:37.222Z,5.86
2019-02-09T22:18:41.356Z,5.89
2019-02-09T22:23:45.566Z,5.91
2019-02-09T22:28:49.755Z,6.02
2019-02-09T22:33:54.074Z,5.95
2019-02-09T22:38:58.459Z,6.17
2019-02-09T22:44:03.201Z,6.17
2019-02-09T22:49:26.851Z,5.97
2019-02-09T22:54:38.017Z,5.84
2019-02-09T22:59:39.654Z,5.60
2019-02-09T23:04:52.463Z,5.69
2019-02-09T23:09:58.172Z,5.82
2019-02-09T23:15:02.308Z,5.82
2019-02-09T23:20:08.516Z,5.61
2019-02-09T23:25:13.254Z,5.32
2019-02-09T23:30:17.389Z,5.10
2019-02-09T23:35:21.593Z,4.95
2019-02-09T23:40:25.700Z,4.85
2019-02-09T23:45:29.841Z,4.83
2019-02-09T23:50:33.988Z,4.89
2019-02-09T23:55:38.558Z,4.89
